Time;durP1;ratioP1;P1;durP2;ratioP2;P2;SDS_P1;SDS_P2;PMS_P1;PMS_P2;Temp;Humidity;BMP_temperature;BMP_pressure;BME280_temperature;BME280_humidity;BME280_pressure;Samples;Min_cycle;Max_cycle;Signal;HPM_P1;HPM_P2
2021/08/19 00:01:15;;;;;;;17.77;11.63;;;;;;;;;;5031774;28;20076;-79
2021/08/19 00:03:40;;;;;;;18.85;12.07;;;;;;;;;;5036567;28;20037;-79
2021/08/19 00:06:06;;;;;;;15.95;11.75;;;;;;;;;;5018738;28;20041;-79
2021/08/19 00:08:32;;;;;;;15.90;12.13;;;;;;;;;;5029323;28;20104;-79
2021/08/19 00:10:57;;;;;;;15.98;12.27;;;;;;;;;;5029828;28;20372;-79
2021/08/19 00:13:23;;;;;;;17.67;12.30;;;;;;;;;;5008877;28;20026;-79
2021/08/19 00:15:50;;;;;;;13.80;10.90;;;;;;;;;;5010374;28;20088;-79
2021/08/19 00:18:16;;;;;;;14.10;11.20;;;;;;;;;;5029692;28;20033;-78
2021/08/19 00:20:41;;;;;;;18.27;12.02;;;;;;;;;;5032851;28;20443;-79
2021/08/19 00:23:07;;;;;;;15.40;11.98;;;;;;;;;;5031358;28;20114;-79
2021/08/19 00:25:32;;;;;;;20.63;12.25;;;;;;;;;;5027702;28;20095;-79
2021/08/19 00:27:58;;;;;;;15.95;11.80;;;;;;;;;;5032590;28;20074;-79
2021/08/19 00:30:24;;;;;;;18.70;11.75;;;;;;;;;;5028536;28;20034;-79
2021/08/19 00:32:49;;;;;;;16.52;12.00;;;;;;;;;;5026435;28;20041;-79
2021/08/19 00:35:15;;;;;;;20.08;12.57;;;;;;;;;;5013781;28;20022;-79
2021/08/19 00:37:40;;;;;;;18.05;11.98;;;;;;;;;;5031391;28;20500;-79
2021/08/19 00:40:06;;;;;;;19.75;12.32;;;;;;;;;;5033275;28;20032;-79
2021/08/19 00:42:33;;;;;;;18.88;12.25;;;;;;;;;;5031506;28;20473;-79
2021/08/19 00:44:58;;;;;;;21.80;12.65;;;;;;;;;;5031354;28;20049;-79
2021/08/19 00:47:28;;;;;;;19.45;13.77;;;;;;;;;;5035740;28;20040;-79
2021/08/19 00:50:00;;;;;;;21.25;12.85;;;;;;;;;;5036627;28;20029;-79
2021/08/19 00:52:25;;;;;;;19.48;13.10;;;;;;;;;;5026871;28;20509;-79
2021/08/19 00:54:50;;;;;;;18.65;12.27;;;;;;;;;;5036690;28;20057;-79
2021/08/19 00:57:16;;;;;;;19.58;12.90;;;;;;;;;;5019878;28;20037;-79
2021/08/19 00:59:42;;;;;;;20.77;13.23;;;;;;;;;;5035716;28;20036;-78
2021/08/19 01:02:08;;;;;;;19.77;12.73;;;;;;;;;;5022652;28;20104;-79
2021/08/19 01:04:37;;;;;;;18.05;12.50;;;;;;;;;;5030728;28;20102;-79
2021/08/19 01:07:04;;;;;;;18.63;12.98;;;;;;;;;;5033679;28;20496;-79
2021/08/19 01:09:30;;;;;;;18.38;12.60;;;;;;;;;;5034016;28;20033;-79
2021/08/19 01:11:55;;;;;;;20.05;12.98;;;;;;;;;;5035360;28;20104;-79
2021/08/19 01:14:21;;;;;;;21.08;13.65;;;;;;;;;;5026790;28;20053;-79
2021/08/19 01:16:48;;;;;;;19.30;13.40;;;;;;;;;;5026906;28;20515;-79
2021/08/19 01:19:21;;;;;;;20.27;13.30;;;;;;;;;;4999936;28;20059;-79
2021/08/19 01:21:51;;;;;;;18.17;12.23;;;;;;;;;;5027419;28;20061;-79
2021/08/19 01:24:17;;;;;;;19.80;13.05;;;;;;;;;;5027462;28;20025;-79
2021/08/19 01:26:42;;;;;;;20.67;13.40;;;;;;;;;;5030814;28;20570;-79
2021/08/19 01:29:08;;;;;;;21.00;12.77;;;;;;;;;;5028087;28;20120;-79
2021/08/19 01:31:35;;;;;;;26.00;14.30;;;;;;;;;;5011162;28;20033;-79
2021/08/19 01:34:01;;;;;;;22.90;12.60;;;;;;;;;;5023527;28;20044;-79
2021/08/19 01:36:27;;;;;;;22.58;14.27;;;;;;;;;;5033525;28;20466;-79
2021/08/19 01:38:53;;;;;;;19.73;12.73;;;;;;;;;;5010351;28;20065;-79
2021/08/19 01:41:20;;;;;;;20.08;13.23;;;;;;;;;;5022143;28;20026;-81
2021/08/19 01:43:49;;;;;;;22.50;14.18;;;;;;;;;;5031966;28;20079;-79
2021/08/19 01:46:17;;;;;;;22.05;13.60;;;;;;;;;;5032092;28;20036;-79
2021/08/19 01:48:44;;;;;;;19.77;13.82;;;;;;;;;;5030997;28;20041;-79
2021/08/19 01:51:11;;;;;;;19.52;13.50;;;;;;;;;;5009887;28;20026;-79
2021/08/19 01:53:37;;;;;;;20.02;13.13;;;;;;;;;;5030699;28;20034;-79
2021/08/19 01:56:03;;;;;;;22.10;13.38;;;;;;;;;;5026430;28;20377;-79
2021/08/19 01:58:28;;;;;;;22.10;13.70;;;;;;;;;;4991806;28;20064;-79
2021/08/19 02:00:54;;;;;;;21.50;13.15;;;;;;;;;;5014448;28;20032;-79
2021/08/19 02:03:19;;;;;;;23.27;14.50;;;;;;;;;;5035437;28;20092;-79
2021/08/19 02:05:51;;;;;;;23.33;14.43;;;;;;;;;;5010741;28;20117;-79
2021/08/19 02:08:17;;;;;;;19.80;13.25;;;;;;;;;;5030185;28;20052;-79
2021/08/19 02:10:44;;;;;;;23.20;14.02;;;;;;;;;;5030001;28;20060;-79
2021/08/19 02:13:11;;;;;;;21.00;12.48;;;;;;;;;;5033951;28;20109;-79
2021/08/19 02:15:37;;;;;;;21.52;12.77;;;;;;;;;;5027187;28;20565;-79
2021/08/19 02:18:02;;;;;;;23.15;12.32;;;;;;;;;;5012241;28;20033;-79
2021/08/19 02:20:28;;;;;;;20.23;12.32;;;;;;;;;;5013034;28;20091;-79
2021/08/19 02:23:01;;;;;;;21.30;13.00;;;;;;;;;;5027026;28;20056;-79
2021/08/19 02:25:28;;;;;;;21.83;12.88;;;;;;;;;;5024993;28;20075;-79
2021/08/19 02:27:54;;;;;;;20.98;13.77;;;;;;;;;;5029276;28;20030;-79
2021/08/19 02:30:20;;;;;;;21.48;12.85;;;;;;;;;;5025008;28;20021;-79
2021/08/19 02:32:52;;;;;;;20.08;12.95;;;;;;;;;;5008829;28;20032;-79
2021/08/19 02:35:18;;;;;;;21.38;13.65;;;;;;;;;;5029858;28;20090;-79
2021/08/19 02:37:43;;;;;;;19.15;12.77;;;;;;;;;;5031756;28;20066;-79
2021/08/19 02:40:09;;;;;;;19.92;12.93;;;;;;;;;;5033381;28;20051;-78
2021/08/19 02:42:34;;;;;;;24.88;13.20;;;;;;;;;;5028132;28;20033;-79
2021/08/19 02:45:00;;;;;;;22.45;13.55;;;;;;;;;;5014798;28;20411;-78
2021/08/19 02:47:25;;;;;;;24.17;14.10;;;;;;;;;;5013845;28;20064;-79
2021/08/19 02:49:50;;;;;;;27.02;14.70;;;;;;;;;;5011598;28;20029;-79
2021/08/19 02:52:16;;;;;;;25.33;13.65;;;;;;;;;;5009531;28;20121;-79
2021/08/19 02:54:41;;;;;;;26.67;14.52;;;;;;;;;;5031256;28;20063;-79
2021/08/19 02:57:06;;;;;;;22.83;14.23;;;;;;;;;;5028283;28;20038;-79
2021/08/19 02:59:32;;;;;;;19.42;13.35;;;;;;;;;;5009083;28;20038;-79
2021/08/19 03:01:57;;;;;;;24.52;14.23;;;;;;;;;;5027734;28;20039;-79
2021/08/19 03:04:23;;;;;;;23.42;14.40;;;;;;;;;;5006658;28;20086;-79
2021/08/19 03:06:48;;;;;;;27.13;15.75;;;;;;;;;;5028784;28;20470;-79
2021/08/19 03:09:13;;;;;;;24.90;15.27;;;;;;;;;;5010460;28;20048;-79
2021/08/19 03:11:39;;;;;;;23.58;15.13;;;;;;;;;;5019389;28;20116;-79
2021/08/19 03:14:04;;;;;;;24.60;15.00;;;;;;;;;;5015716;28;20042;-79
2021/08/19 03:16:30;;;;;;;27.70;15.52;;;;;;;;;;5022597;28;20044;-79
2021/08/19 03:18:55;;;;;;;26.45;15.25;;;;;;;;;;5028731;28;20374;-79
2021/08/19 03:21:21;;;;;;;23.65;15.35;;;;;;;;;;5037021;28;20041;-79
2021/08/19 03:23:47;;;;;;;23.10;14.18;;;;;;;;;;5011303;28;20033;-78
2021/08/19 03:26:15;;;;;;;19.50;14.18;;;;;;;;;;5032810;28;20389;-79
2021/08/19 03:28:41;;;;;;;26.95;15.57;;;;;;;;;;4996409;28;20041;-79
2021/08/19 03:31:07;;;;;;;25.65;14.93;;;;;;;;;;5028884;28;20053;-79
2021/08/19 03:33:32;;;;;;;23.98;15.10;;;;;;;;;;5036666;28;20046;-79
2021/08/19 03:35:58;;;;;;;25.23;15.52;;;;;;;;;;5029913;28;20025;-79
2021/08/19 03:38:24;;;;;;;22.42;14.73;;;;;;;;;;5032590;28;20380;-79
2021/08/19 03:40:49;;;;;;;23.23;15.48;;;;;;;;;;5022074;28;20033;-79
2021/08/19 03:43:15;;;;;;;23.05;15.00;;;;;;;;;;5024966;28;20033;-79
2021/08/19 03:45:40;;;;;;;20.20;14.50;;;;;;;;;;5019807;28;20124;-79
2021/08/19 03:48:06;;;;;;;21.92;15.02;;;;;;;;;;5031992;28;20026;-79
2021/08/19 03:50:33;;;;;;;23.40;15.75;;;;;;;;;;5017047;28;20030;-79
2021/08/19 03:52:59;;;;;;;20.02;14.07;;;;;;;;;;5042062;28;20087;-79
2021/08/19 03:55:24;;;;;;;25.70;15.50;;;;;;;;;;4999226;28;20022;-79
2021/08/19 03:57:49;;;;;;;28.13;15.75;;;;;;;;;;5035978;28;20037;-81
2021/08/19 04:00:15;;;;;;;25.95;16.30;;;;;;;;;;5020250;28;20473;-81
2021/08/19 04:02:41;;;;;;;25.08;15.68;;;;;;;;;;5002440;28;20053;-79
2021/08/19 04:05:07;;;;;;;24.02;15.75;;;;;;;;;;5035477;28;20041;-79
2021/08/19 04:07:32;;;;;;;23.88;15.40;;;;;;;;;;5036841;28;20037;-78
2021/08/19 04:09:58;;;;;;;26.02;16.25;;;;;;;;;;5038014;28;20511;-79
2021/08/19 04:12:23;;;;;;;22.42;14.60;;;;;;;;;;5014011;28;20037;-79
2021/08/19 04:14:49;;;;;;;25.05;15.18;;;;;;;;;;5031217;28;20223;-79
2021/08/19 04:17:14;;;;;;;24.05;14.32;;;;;;;;;;5016686;28;20100;-79
2021/08/19 04:19:41;;;;;;;25.85;15.48;;;;;;;;;;5031703;28;20111;-79
2021/08/19 04:22:07;;;;;;;22.83;15.30;;;;;;;;;;5029901;28;20037;-79
2021/08/19 04:24:32;;;;;;;26.98;15.75;;;;;;;;;;5032289;28;20095;-79
2021/08/19 04:26:58;;;;;;;27.17;14.60;;;;;;;;;;5011004;28;20033;-79
2021/08/19 04:29:23;;;;;;;20.83;14.50;;;;;;;;;;5031905;28;20044;-79
2021/08/19 04:31:49;;;;;;;21.48;15.10;;;;;;;;;;5032289;28;20421;-79
2021/08/19 04:34:14;;;;;;;26.00;14.90;;;;;;;;;;5010138;28;20084;-79
2021/08/19 04:36:39;;;;;;;23.55;14.75;;;;;;;;;;5030600;28;20030;-79
2021/08/19 04:39:05;;;;;;;23.60;14.85;;;;;;;;;;5030469;28;20492;-79
2021/08/19 04:41:30;;;;;;;21.98;14.38;;;;;;;;;;5033459;28;20072;-79
2021/08/19 04:43:56;;;;;;;23.52;14.65;;;;;;;;;;5029698;28;20060;-79
2021/08/19 04:46:21;;;;;;;32.90;15.02;;;;;;;;;;5032055;28;20037;-79
2021/08/19 04:48:47;;;;;;;22.55;14.50;;;;;;;;;;5032121;28;20060;-79
2021/08/19 04:51:12;;;;;;;26.27;14.80;;;;;;;;;;5031410;28;20040;-79
2021/08/19 04:53:38;;;;;;;20.63;14.48;;;;;;;;;;5028354;28;20108;-79
2021/08/19 04:56:03;;;;;;;28.10;15.45;;;;;;;;;;5014769;28;20036;-78
2021/08/19 04:58:29;;;;;;;26.15;15.27;;;;;;;;;;5019491;28;20029;-79
2021/08/19 05:00:55;;;;;;;23.52;15.10;;;;;;;;;;5034301;28;20040;-79
2021/08/19 05:03:20;;;;;;;23.25;14.55;;;;;;;;;;5030025;28;21201;-81
2021/08/19 05:05:46;;;;;;;25.38;15.88;;;;;;;;;;5023509;28;20477;-79
2021/08/19 05:08:11;;;;;;;24.63;14.85;;;;;;;;;;5024133;28;20026;-79
2021/08/19 05:10:37;;;;;;;23.25;14.82;;;;;;;;;;5031428;28;20038;-79
2021/08/19 05:13:02;;;;;;;24.08;14.15;;;;;;;;;;5028920;28;20048;-79
2021/08/19 05:15:28;;;;;;;22.30;14.40;;;;;;;;;;5026182;28;20450;-79
2021/08/19 05:17:53;;;;;;;23.95;14.52;;;;;;;;;;5011172;28;20038;-79
2021/08/19 05:20:19;;;;;;;24.33;15.70;;;;;;;;;;5001511;28;20032;-79
2021/08/19 05:22:44;;;;;;;23.17;14.63;;;;;;;;;;5030482;28;20121;-79
2021/08/19 05:25:10;;;;;;;24.50;15.23;;;;;;;;;;5006362;28;20099;-79
2021/08/19 05:27:36;;;;;;;26.40;15.00;;;;;;;;;;5022172;28;20042;-78
2021/08/19 05:30:01;;;;;;;25.65;14.77;;;;;;;;;;5012184;28;20026;-79
2021/08/19 05:32:27;;;;;;;26.42;14.75;;;;;;;;;;5013706;28;20060;-79
2021/08/19 05:34:52;;;;;;;25.45;15.20;;;;;;;;;;5023949;28;20469;-79
2021/08/19 05:37:18;;;;;;;26.33;15.45;;;;;;;;;;5027947;28;20032;-79
2021/08/19 05:39:43;;;;;;;30.83;16.42;;;;;;;;;;5011223;28;20046;-79
2021/08/19 05:42:08;;;;;;;21.23;13.80;;;;;;;;;;5033677;28;20036;-79
2021/08/19 05:44:36;;;;;;;22.52;14.45;;;;;;;;;;5029143;28;20121;-79
2021/08/19 05:47:04;;;;;;;27.90;15.32;;;;;;;;;;5014550;28;20037;-79
2021/08/19 05:49:33;;;;;;;23.88;14.18;;;;;;;;;;5025532;28;20029;-79
2021/08/19 05:51:58;;;;;;;23.65;14.23;;;;;;;;;;5028894;28;20026;-79
2021/08/19 05:54:24;;;;;;;25.67;14.55;;;;;;;;;;5030121;28;20131;-79
2021/08/19 05:56:49;;;;;;;20.23;13.73;;;;;;;;;;5034578;28;20053;-79
2021/08/19 05:59:14;;;;;;;20.73;13.38;;;;;;;;;;5014004;28;20396;-79
2021/08/19 06:01:40;;;;;;;27.80;14.48;;;;;;;;;;4996774;28;20069;-79
2021/08/19 06:04:05;;;;;;;22.48;14.50;;;;;;;;;;5030259;28;20476;-80
2021/08/19 06:06:31;;;;;;;22.65;13.95;;;;;;;;;;5010102;28;20101;-81
2021/08/19 06:08:56;;;;;;;22.48;14.50;;;;;;;;;;5024607;28;20116;-81
2021/08/19 06:11:21;;;;;;;24.63;14.35;;;;;;;;;;5030510;28;20037;-81
2021/08/19 06:13:47;;;;;;;23.20;14.27;;;;;;;;;;5032179;28;20513;-81
2021/08/19 06:16:12;;;;;;;23.05;14.70;;;;;;;;;;5030986;28;20406;-79
2021/08/19 06:18:38;;;;;;;23.33;14.80;;;;;;;;;;5007925;28;20034;-79
2021/08/19 06:21:03;;;;;;;22.13;14.50;;;;;;;;;;5008249;28;20091;-79
2021/08/19 06:23:29;;;;;;;21.85;14.52;;;;;;;;;;5025951;28;20034;-79
2021/08/19 06:25:54;;;;;;;22.42;14.00;;;;;;;;;;5030384;28;20026;-79
2021/08/19 06:28:24;;;;;;;24.95;14.85;;;;;;;;;;5022664;28;20041;-79
2021/08/19 06:30:51;;;;;;;20.33;14.80;;;;;;;;;;5032518;28;20026;-79
2021/08/19 06:33:16;;;;;;;25.00;14.18;;;;;;;;;;5013742;28;20033;-79
2021/08/19 06:35:41;;;;;;;23.95;14.75;;;;;;;;;;5033001;28;20114;-79
2021/08/19 06:38:07;;;;;;;22.05;13.73;;;;;;;;;;5024978;28;20092;-79
2021/08/19 06:40:32;;;;;;;23.88;14.48;;;;;;;;;;5031629;28;20038;-79
2021/08/19 06:42:58;;;;;;;23.67;15.10;;;;;;;;;;5028321;28;20073;-79
2021/08/19 06:45:23;;;;;;;21.90;14.38;;;;;;;;;;5029267;28;20030;-79
2021/08/19 06:47:49;;;;;;;21.85;13.88;;;;;;;;;;5030688;28;20102;-79
2021/08/19 06:50:14;;;;;;;26.52;14.55;;;;;;;;;;5027246;28;20021;-79
2021/08/19 06:52:41;;;;;;;22.63;14.10;;;;;;;;;;5011174;28;20025;-78
2021/08/19 06:55:08;;;;;;;24.08;14.20;;;;;;;;;;5029639;28;20028;-79
2021/08/19 06:57:34;;;;;;;22.90;14.40;;;;;;;;;;5032316;28;20096;-79
2021/08/19 06:59:59;;;;;;;18.42;12.73;;;;;;;;;;5028717;28;20492;-79
2021/08/19 07:02:24;;;;;;;22.25;13.55;;;;;;;;;;5032866;28;20120;-79
2021/08/19 07:04:50;;;;;;;22.23;13.45;;;;;;;;;;5034304;28;20489;-79
2021/08/19 07:07:15;;;;;;;22.10;13.50;;;;;;;;;;5031031;28;20022;-79
2021/08/19 07:09:40;;;;;;;21.85;13.40;;;;;;;;;;5033344;28;20033;-79
2021/08/19 07:12:06;;;;;;;21.10;13.40;;;;;;;;;;5018663;28;20057;-79
2021/08/19 07:14:31;;;;;;;19.33;13.48;;;;;;;;;;5033521;28;20103;-79
2021/08/19 07:16:57;;;;;;;21.30;13.75;;;;;;;;;;5018024;28;20059;-79
2021/08/19 07:19:22;;;;;;;24.15;13.43;;;;;;;;;;5008911;28;20128;-79
2021/08/19 07:21:48;;;;;;;20.10;12.18;;;;;;;;;;5034576;28;20022;-79
2021/08/19 07:24:13;;;;;;;23.70;13.32;;;;;;;;;;5018648;28;20038;-79
2021/08/19 07:26:38;;;;;;;22.88;13.50;;;;;;;;;;5023500;28;20030;-79
2021/08/19 07:29:04;;;;;;;18.63;12.40;;;;;;;;;;5029645;28;20761;-79
2021/08/19 07:31:30;;;;;;;22.77;12.35;;;;;;;;;;5035205;28;20465;-79
2021/08/19 07:33:55;;;;;;;19.05;12.30;;;;;;;;;;5018526;28;20034;-79
2021/08/19 07:36:21;;;;;;;19.52;12.15;;;;;;;;;;5033787;28;20045;-81
2021/08/19 07:38:47;;;;;;;18.33;12.45;;;;;;;;;;5016910;28;20078;-79
2021/08/19 07:41:13;;;;;;;21.58;12.35;;;;;;;;;;5031702;28;20527;-79
2021/08/19 07:43:38;;;;;;;19.88;12.43;;;;;;;;;;5031939;28;20029;-79
2021/08/19 07:46:04;;;;;;;21.90;11.88;;;;;;;;;;5025912;28;20038;-79
2021/08/19 07:48:29;;;;;;;15.88;11.82;;;;;;;;;;5034142;28;20051;-79
2021/08/19 07:50:56;;;;;;;22.55;12.55;;;;;;;;;;5031356;28;20128;-79
2021/08/19 07:53:22;;;;;;;20.85;12.48;;;;;;;;;;5027097;28;20033;-79
2021/08/19 07:55:47;;;;;;;19.42;12.43;;;;;;;;;;5034257;28;20096;-79
2021/08/19 07:58:12;;;;;;;21.75;12.45;;;;;;;;;;5023502;28;20068;-79
2021/08/19 08:00:38;;;;;;;20.05;12.77;;;;;;;;;;5035316;28;20034;-79
2021/08/19 08:03:04;;;;;;;16.77;12.18;;;;;;;;;;5026663;28;20128;-78
2021/08/19 08:05:32;;;;;;;21.02;12.73;;;;;;;;;;5041400;28;20031;-79
2021/08/19 08:08:06;;;;;;;20.88;13.00;;;;;;;;;;5041077;28;20033;-79
2021/08/19 08:10:31;;;;;;;20.02;12.85;;;;;;;;;;5021105;28;20481;-79
2021/08/19 08:12:58;;;;;;;20.15;13.07;;;;;;;;;;5023670;28;20029;-79
2021/08/19 08:15:24;;;;;;;21.13;13.15;;;;;;;;;;5031970;28;20050;-80
2021/08/19 08:17:50;;;;;;;22.15;12.77;;;;;;;;;;5022532;28;20029;-79
2021/08/19 08:20:15;;;;;;;18.95;13.25;;;;;;;;;;5023582;28;20040;-80
2021/08/19 08:22:44;;;;;;;18.98;12.60;;;;;;;;;;5035645;28;20037;-79
2021/08/19 08:25:10;;;;;;;19.55;13.15;;;;;;;;;;5018469;28;20037;-80
2021/08/19 08:27:37;;;;;;;17.38;13.05;;;;;;;;;;5029760;28;20037;-80
2021/08/19 08:30:04;;;;;;;17.83;12.68;;;;;;;;;;5023788;28;20101;-80
2021/08/19 08:32:29;;;;;;;19.98;13.40;;;;;;;;;;5038127;28;20083;-80
2021/08/19 08:34:55;;;;;;;19.67;12.55;;;;;;;;;;5043010;28;20029;-80
2021/08/19 08:37:23;;;;;;;21.23;13.05;;;;;;;;;;5041546;28;20029;-80
2021/08/19 08:39:48;;;;;;;20.17;13.02;;;;;;;;;;5017781;28;20029;-80
2021/08/19 08:42:13;;;;;;;17.73;12.43;;;;;;;;;;5031053;28;20487;-79
2021/08/19 08:44:39;;;;;;;21.10;12.75;;;;;;;;;;5029641;28;20041;-80
2021/08/19 08:47:05;;;;;;;17.33;12.32;;;;;;;;;;5036190;28;20030;-80
2021/08/19 08:49:30;;;;;;;19.05;11.48;;;;;;;;;;5017428;28;20036;-80
2021/08/19 08:51:58;;;;;;;17.55;12.63;;;;;;;;;;5019703;28;20033;-80
2021/08/19 08:54:25;;;;;;;18.15;12.63;;;;;;;;;;5035220;28;20144;-80
2021/08/19 08:56:50;;;;;;;17.23;12.18;;;;;;;;;;5037006;28;20097;-79
2021/08/19 08:59:16;;;;;;;19.23;11.88;;;;;;;;;;5038424;28;20056;-80
2021/08/19 09:01:42;;;;;;;15.85;11.43;;;;;;;;;;5022634;28;20043;-80
2021/08/19 09:04:07;;;;;;;17.08;11.00;;;;;;;;;;5041003;28;20083;-80
2021/08/19 09:06:37;;;;;;;16.85;11.40;;;;;;;;;;5034039;28;20508;-80
2021/08/19 09:09:23;;;;;;;19.60;11.27;;;;;;;;;;5035494;28;20057;-80
2021/08/19 09:11:59;;;;;;;17.73;11.73;;;;;;;;;;5037879;28;20036;-80
2021/08/19 09:14:27;;;;;;;13.88;10.15;;;;;;;;;;5039186;28;20122;-80
2021/08/19 09:16:53;;;;;;;17.25;11.10;;;;;;;;;;5038662;28;20048;-79
2021/08/19 09:19:22;;;;;;;14.05;10.55;;;;;;;;;;5036037;28;20026;-80
2021/08/19 09:21:53;;;;;;;14.85;10.10;;;;;;;;;;5034582;28;20033;-80
2021/08/19 09:24:23;;;;;;;15.27;9.68;;;;;;;;;;5035873;28;20025;-80
2021/08/19 09:26:50;;;;;;;13.98;9.48;;;;;;;;;;5036619;28;20081;-80
2021/08/19 09:29:29;;;;;;;13.27;9.55;;;;;;;;;;5015981;28;20386;-80
2021/08/19 09:32:07;;;;;;;13.10;9.68;;;;;;;;;;5037772;28;20558;-80
2021/08/19 09:34:34;;;;;;;13.07;10.00;;;;;;;;;;5034329;28;20083;-80
2021/08/19 09:37:04;;;;;;;13.48;10.23;;;;;;;;;;5044028;28;20021;-79
2021/08/19 09:39:45;;;;;;;14.45;9.93;;;;;;;;;;5002975;28;20071;-80
2021/08/19 09:42:11;;;;;;;13.43;10.02;;;;;;;;;;5033919;28;20022;-80
2021/08/19 09:44:43;;;;;;;14.73;9.85;;;;;;;;;;5036960;28;20033;-80
2021/08/19 09:47:28;;;;;;;13.88;10.00;;;;;;;;;;5037001;28;20848;-80
2021/08/19 09:50:11;;;;;;;15.95;11.18;;;;;;;;;;5035779;28;20040;-80
2021/08/19 09:52:37;;;;;;;14.20;10.93;;;;;;;;;;5035373;28;20025;-80
2021/08/19 09:55:23;;;;;;;13.90;10.45;;;;;;;;;;5034235;28;20299;-80
2021/08/19 09:57:49;;;;;;;16.42;11.10;;;;;;;;;;5034227;28;20044;-79
2021/08/19 10:00:37;;;;;;;14.80;11.27;;;;;;;;;;5034865;28;20470;-80
2021/08/19 10:03:03;;;;;;;14.60;11.10;;;;;;;;;;5033631;28;20060;-80
2021/08/19 10:05:29;;;;;;;14.98;11.38;;;;;;;;;;5037505;28;20025;-80
2021/08/19 10:07:54;;;;;;;15.52;11.55;;;;;;;;;;5033451;28;20029;-79
2021/08/19 10:10:20;;;;;;;15.93;11.93;;;;;;;;;;5033297;28;20041;-79
2021/08/19 10:12:47;;;;;;;15.73;11.85;;;;;;;;;;5030498;28;20061;-80
2021/08/19 10:15:14;;;;;;;15.77;11.00;;;;;;;;;;5032178;28;20057;-80
2021/08/19 10:17:45;;;;;;;17.35;12.07;;;;;;;;;;5030651;28;20037;-80
2021/08/19 10:20:14;;;;;;;15.52;11.80;;;;;;;;;;5034740;28;20064;-80
2021/08/19 10:22:40;;;;;;;16.02;11.85;;;;;;;;;;5027864;28;20055;-80
2021/08/19 10:25:07;;;;;;;14.80;11.27;;;;;;;;;;5030244;28;20657;-80
2021/08/19 10:27:33;;;;;;;13.75;11.98;;;;;;;;;;5040623;28;20041;-81
2021/08/19 10:30:02;;;;;;;16.20;12.40;;;;;;;;;;5032936;28;20700;-80
2021/08/19 10:32:33;;;;;;;14.48;11.57;;;;;;;;;;5028654;28;20026;-81
2021/08/19 10:35:11;;;;;;;15.63;12.70;;;;;;;;;;5026522;28;20020;-80
2021/08/19 10:37:46;;;;;;;16.52;12.75;;;;;;;;;;5031539;28;20523;-81
2021/08/19 10:40:21;;;;;;;16.20;12.32;;;;;;;;;;5027089;28;20029;-81
2021/08/19 10:42:58;;;;;;;17.42;12.57;;;;;;;;;;5031376;28;20080;-81
2021/08/19 10:45:27;;;;;;;16.95;12.57;;;;;;;;;;5033758;28;20041;-81
2021/08/19 10:47:54;;;;;;;13.27;11.30;;;;;;;;;;5037823;28;20056;-81
2021/08/19 10:50:36;;;;;;;15.30;11.85;;;;;;;;;;5034913;28;20040;-81
2021/08/19 10:53:12;;;;;;;15.77;12.18;;;;;;;;;;5029406;28;20033;-81
2021/08/19 10:55:40;;;;;;;15.70;11.98;;;;;;;;;;5038652;28;20052;-81
2021/08/19 10:58:35;;;;;;;15.00;12.50;;;;;;;;;;5030780;28;20493;-81
2021/08/19 11:01:12;;;;;;;17.73;12.63;;;;;;;;;;5032745;28;20056;-81
2021/08/19 11:03:38;;;;;;;17.25;12.27;;;;;;;;;;5028790;28;20545;-81
2021/08/19 11:06:09;;;;;;;15.23;11.95;;;;;;;;;;5035511;28;20056;-81
2021/08/19 11:08:39;;;;;;;16.85;11.60;;;;;;;;;;5008804;28;20045;-81
2021/08/19 11:11:06;;;;;;;15.63;11.55;;;;;;;;;;5024729;28;20044;-81
2021/08/19 11:13:34;;;;;;;15.20;11.65;;;;;;;;;;5035679;28;20021;-81
2021/08/19 11:16:04;;;;;;;13.82;11.35;;;;;;;;;;5037295;28;20025;-81
2021/08/19 11:18:32;;;;;;;14.13;10.88;;;;;;;;;;5034204;28;20112;-81
2021/08/19 11:20:58;;;;;;;13.57;11.25;;;;;;;;;;5014129;28;20059;-81
2021/08/19 11:23:39;;;;;;;15.13;11.65;;;;;;;;;;5028601;28;20041;-82
2021/08/19 11:26:06;;;;;;;16.50;11.52;;;;;;;;;;5025969;28;20358;-81
2021/08/19 11:28:40;;;;;;;16.17;10.90;;;;;;;;;;5032924;28;20133;-81
2021/08/19 11:31:11;;;;;;;13.80;10.75;;;;;;;;;;5028273;28;20037;-81
2021/08/19 11:33:39;;;;;;;16.42;11.75;;;;;;;;;;5033423;28;20036;-81
2021/08/19 11:36:05;;;;;;;13.88;10.82;;;;;;;;;;5016303;28;20036;-81
2021/08/19 11:38:30;;;;;;;15.38;11.23;;;;;;;;;;5049074;28;20108;-81
2021/08/19 11:40:57;;;;;;;18.95;11.13;;;;;;;;;;5039344;28;20034;-81
2021/08/19 11:43:31;;;;;;;17.27;11.50;;;;;;;;;;5028415;28;20104;-81
2021/08/19 11:46:29;;;;;;;12.57;10.30;;;;;;;;;;5037178;28;20799;-81
2021/08/19 11:48:57;;;;;;;15.95;10.65;;;;;;;;;;5014766;28;20053;-81
2021/08/19 11:51:34;;;;;;;13.10;10.88;;;;;;;;;;5033000;28;20448;-81
2021/08/19 11:54:08;;;;;;;14.85;10.65;;;;;;;;;;5035257;28;20067;-81
2021/08/19 11:56:36;;;;;;;14.07;10.30;;;;;;;;;;5036429;28;20390;-81
2021/08/19 11:59:10;;;;;;;13.93;10.52;;;;;;;;;;5036292;28;20022;-81
2021/08/19 12:01:37;;;;;;;12.80;10.60;;;;;;;;;;5038214;28;20029;-81
2021/08/19 12:04:05;;;;;;;12.63;10.07;;;;;;;;;;5034341;28;20535;-81
2021/08/19 12:06:32;;;;;;;14.15;10.63;;;;;;;;;;5037239;28;20029;-81
2021/08/19 12:09:06;;;;;;;15.60;10.52;;;;;;;;;;5011942;28;20029;-81
2021/08/19 12:11:38;;;;;;;15.27;10.95;;;;;;;;;;5035385;28;20126;-81
2021/08/19 12:14:05;;;;;;;15.47;10.93;;;;;;;;;;5031205;28;20100;-81
2021/08/19 12:16:32;;;;;;;15.10;10.95;;;;;;;;;;5048067;28;20358;-81
2021/08/19 12:19:14;;;;;;;14.73;11.18;;;;;;;;;;5030022;28;20076;-81
2021/08/19 12:21:59;;;;;;;13.55;10.73;;;;;;;;;;5032305;28;20393;-81
2021/08/19 12:24:35;;;;;;;15.50;11.32;;;;;;;;;;5024497;28;20034;-81
2021/08/19 12:27:08;;;;;;;15.77;11.95;;;;;;;;;;5033618;28;20025;-81
2021/08/19 12:29:35;;;;;;;15.68;11.48;;;;;;;;;;5036345;28;20112;-81
2021/08/19 12:32:02;;;;;;;14.82;11.52;;;;;;;;;;5031789;28;20032;-81
2021/08/19 12:34:28;;;;;;;15.55;10.73;;;;;;;;;;5025963;28;20045;-81
2021/08/19 12:37:05;;;;;;;16.30;11.52;;;;;;;;;;5034744;28;20041;-81
2021/08/19 12:39:34;;;;;;;15.90;12.77;;;;;;;;;;5035956;28;20036;-81
2021/08/19 12:42:10;;;;;;;17.90;11.50;;;;;;;;;;5015170;28;20033;-82
2021/08/19 12:44:38;;;;;;;16.42;12.68;;;;;;;;;;5035296;28;20033;-81
2021/08/19 12:47:04;;;;;;;14.60;12.10;;;;;;;;;;5035135;28;20033;-81
2021/08/19 12:49:35;;;;;;;14.75;10.85;;;;;;;;;;5036406;28;20396;-81
2021/08/19 12:52:16;;;;;;;13.20;10.85;;;;;;;;;;5035154;28;20047;-81
2021/08/19 12:54:55;;;;;;;16.17;11.02;;;;;;;;;;5033839;28;20084;-81
2021/08/19 12:57:31;;;;;;;15.35;11.20;;;;;;;;;;5037463;28;20026;-81
2021/08/19 12:59:59;;;;;;;14.27;10.77;;;;;;;;;;5027204;28;20288;-81
2021/08/19 13:02:29;;;;;;;15.85;11.38;;;;;;;;;;5039057;28;20026;-81
2021/08/19 13:04:59;;;;;;;13.85;10.50;;;;;;;;;;5020542;28;20045;-81
2021/08/19 13:07:25;;;;;;;12.98;10.48;;;;;;;;;;5021547;28;20033;-81
2021/08/19 13:09:51;;;;;;;12.68;11.05;;;;;;;;;;5036888;28;20389;-80
2021/08/19 13:12:16;;;;;;;14.40;11.20;;;;;;;;;;5030483;28;20030;-81
2021/08/19 13:14:42;;;;;;;14.68;11.07;;;;;;;;;;5018526;28;20468;-81
2021/08/19 13:17:07;;;;;;;15.52;11.85;;;;;;;;;;5032587;28;20053;-81
2021/08/19 13:19:33;;;;;;;16.85;11.60;;;;;;;;;;4994080;28;20039;-81
2021/08/19 13:21:58;;;;;;;13.93;11.25;;;;;;;;;;5029578;28;20112;-81
2021/08/19 13:24:24;;;;;;;14.65;11.80;;;;;;;;;;5018056;28;20029;-81
2021/08/19 13:26:49;;;;;;;13.85;11.57;;;;;;;;;;5014352;28;20393;-81
2021/08/19 13:29:15;;;;;;;15.45;11.40;;;;;;;;;;5023648;28;20096;-81
2021/08/19 13:31:40;;;;;;;13.98;11.95;;;;;;;;;;5014943;28;20132;-81
2021/08/19 13:34:05;;;;;;;16.52;11.10;;;;;;;;;;5035583;28;20030;-80
2021/08/19 13:36:31;;;;;;;14.15;11.20;;;;;;;;;;5036147;28;20036;-81
2021/08/19 13:38:56;;;;;;;14.15;11.40;;;;;;;;;;5029112;28;20029;-81
2021/08/19 13:41:22;;;;;;;15.23;11.15;;;;;;;;;;5019625;28;20389;-81
2021/08/19 13:43:47;;;;;;;15.68;11.32;;;;;;;;;;5029644;28;20037;-81
2021/08/19 13:46:12;;;;;;;15.45;11.80;;;;;;;;;;5012615;28;20033;-81
2021/08/19 13:48:38;;;;;;;18.10;12.13;;;;;;;;;;5016896;28;20025;-83
2021/08/19 13:51:03;;;;;;;16.02;12.38;;;;;;;;;;5038698;28;20040;-81
2021/08/19 13:53:29;;;;;;;16.27;12.43;;;;;;;;;;5011859;28;20943;-81
2021/08/19 13:55:55;;;;;;;15.68;12.82;;;;;;;;;;5001901;28;20432;-81
2021/08/19 13:58:20;;;;;;;17.35;12.95;;;;;;;;;;5025074;28;21662;-81
2021/08/19 14:00:53;;;;;;;14.88;13.00;;;;;;;;;;5026990;28;20025;-81
2021/08/19 14:03:19;;;;;;;16.70;13.27;;;;;;;;;;5029091;28;20060;-81
2021/08/19 14:05:45;;;;;;;20.50;13.52;;;;;;;;;;5013971;28;20041;-81
2021/08/19 14:08:10;;;;;;;17.95;13.80;;;;;;;;;;5001212;28;20029;-81
2021/08/19 14:10:36;;;;;;;17.13;13.63;;;;;;;;;;5031815;28;20037;-81
2021/08/19 14:13:01;;;;;;;18.25;14.27;;;;;;;;;;5033794;28;20056;-80
2021/08/19 14:15:29;;;;;;;18.00;13.57;;;;;;;;;;5013518;28;21786;-81
2021/08/19 14:17:54;;;;;;;17.23;13.70;;;;;;;;;;4993825;28;20048;-81